Time;durP1;ratioP1;P1;durP2;ratioP2;P2;SDS_P1;SDS_P2;PMS_P1;PMS_P2;Temp;Humidity;BMP_temperature;BMP_pressure;BME280_temperature;BME280_humidity;BME280_pressure;Samples;Min_cycle;Max_cycle;Signal;HPM_P1;HPM_P2
2022/01/20 00:00:55;;;;;;;2.43;2.20;;;3.50;99.90;;;4.22;100.00;98838.06;4919164;29;21276;-77
2022/01/20 00:03:31;;;;;;;2.80;2.60;;;3.50;99.90;;;4.23;100.00;98829.38;4927599;29;20480;-77
2022/01/20 00:06:53;;;;;;;2.80;2.60;;;3.50;99.90;;;4.25;100.00;98826.63;4922341;29;20813;-77
2022/01/20 00:09:32;;;;;;;2.90;2.60;;;3.50;99.90;;;4.25;100.00;98832.63;4918993;29;20900;-77
2022/01/20 00:23:30;;;;;;;6.77;2.83;;;3.60;99.90;;;4.30;100.00;98830.50;4925085;29;20475;-77
2022/01/20 00:26:04;;;;;;;5.03;3.23;;;3.60;99.90;;;4.32;100.00;98836.34;4925494;29;20589;-77
2022/01/20 00:28:42;;;;;;;3.60;2.60;;;3.60;99.90;;;4.33;100.00;98837.19;4922111;29;20964;-77
2022/01/20 00:31:31;;;;;;;2.87;2.67;;;3.60;99.90;;;4.32;100.00;98843.28;4923813;29;20477;-77
2022/01/20 00:34:12;;;;;;;3.43;2.93;;;3.60;99.90;;;4.31;100.00;98837.28;4922509;29;20915;-77
2022/01/20 00:39:30;;;;;;;2.73;2.53;;;3.60;99.90;;;4.28;100.00;98837.56;4920063;29;20498;-77
2022/01/20 00:41:59;;;;;;;5.37;3.00;;;3.50;99.90;;;4.28;100.00;98837.56;4919187;29;20463;-77
2022/01/20 00:44:29;;;;;;;4.10;3.27;;;3.50;99.90;;;4.29;100.00;98836.63;4920485;29;20616;-77
2022/01/20 00:47:00;;;;;;;4.70;3.60;;;3.50;99.90;;;4.32;100.00;98838.13;4921649;29;21327;-77
2022/01/20 00:49:29;;;;;;;4.50;2.83;;;3.60;99.90;;;4.33;100.00;98843.19;4921811;29;20526;-77
2022/01/20 00:52:00;;;;;;;3.60;3.20;;;3.60;99.90;;;4.31;100.00;98857.19;4917365;29;20526;-76
2022/01/20 00:54:31;;;;;;;5.50;3.80;;;3.50;99.90;;;4.32;100.00;98849.31;4918995;29;20474;-77
2022/01/20 00:57:01;;;;;;;3.67;3.00;;;3.60;99.90;;;4.33;100.00;98848.34;4918463;29;20835;-77
2022/01/20 00:59:32;;;;;;;4.50;3.23;;;3.60;99.90;;;4.32;100.00;98849.31;4918881;29;20477;-77
2022/01/20 01:02:06;;;;;;;3.57;2.93;;;3.60;99.90;;;4.35;100.00;98851.63;4920365;29;20466;-77
2022/01/20 01:04:37;;;;;;;9.00;3.60;;;3.60;99.90;;;4.36;100.00;98868.81;4919873;29;20481;-77
2022/01/20 01:07:26;;;;;;;3.47;3.17;;;3.60;99.90;;;4.35;100.00;98861.97;4923597;29;21035;-77
2022/01/20 01:09:57;;;;;;;4.17;3.00;;;3.50;99.90;;;4.35;100.00;98861.97;4918132;29;20494;-77
2022/01/20 01:12:35;;;;;;;4.13;3.30;;;3.60;99.90;;;4.32;100.00;98864.81;4917290;29;20505;-76
2022/01/20 01:15:10;;;;;;;4.67;3.33;;;3.50;99.90;;;4.33;100.00;98866.47;4914702;29;21046;-77
2022/01/20 01:20:30;;;;;;;3.63;3.20;;;3.60;99.90;;;4.35;100.00;98869.75;4917229;29;20467;-77
2022/01/20 01:23:00;;;;;;;3.17;2.87;;;3.50;99.90;;;4.35;100.00;98864.56;4914823;29;20466;-77
2022/01/20 01:25:31;;;;;;;3.73;3.37;;;3.50;99.90;;;4.34;100.00;98868.09;4918707;29;20833;-76
2022/01/20 01:28:02;;;;;;;3.80;3.07;;;3.50;99.90;;;4.33;100.00;98871.66;4920000;28;20499;-77
2022/01/20 01:30:49;;;;;;;4.00;3.20;;;3.50;99.90;;;4.35;100.00;98874.94;4920418;29;21030;-76
2022/01/20 01:33:21;;;;;;;3.30;2.87;;;3.50;99.90;;;4.31;100.00;98876.13;4921688;29;20502;-77
2022/01/20 01:35:56;;;;;;;4.20;3.50;;;3.40;99.90;;;4.27;100.00;98881.69;4918561;29;20557;-77
2022/01/20 01:38:36;;;;;;;5.10;3.90;;;3.40;99.90;;;4.25;100.00;98879.22;4919261;29;20526;-76
2022/01/20 01:41:13;;;;;;;4.93;3.20;;;3.40;99.90;;;4.26;100.00;98886.06;4923846;29;20476;-77
2022/01/20 01:43:49;;;;;;;3.97;3.40;;;3.40;99.90;;;4.29;100.00;98895.31;4919837;29;20585;-77
2022/01/20 01:46:20;;;;;;;4.67;3.30;;;3.50;99.90;;;4.28;100.00;98889.31;4921012;29;20479;-77
2022/01/20 01:48:50;;;;;;;4.80;3.50;;;3.40;99.90;;;4.29;100.00;98896.16;4921989;29;21078;-77
2022/01/20 01:51:19;;;;;;;6.30;3.40;;;3.50;99.90;;;4.32;100.00;98906.25;4921101;29;20470;-77
2022/01/20 01:53:48;;;;;;;3.93;3.60;;;3.60;99.90;;;4.32;100.00;98898.47;4912482;29;21458;-77
2022/01/20 01:56:19;;;;;;;3.90;3.50;;;3.70;99.90;;;4.32;100.00;98901.06;4918720;29;20475;-76
2022/01/20 01:58:50;;;;;;;3.33;3.03;;;3.60;99.90;;;4.33;100.00;98910.50;4922283;29;20498;-77
2022/01/20 02:01:20;;;;;;;3.53;3.10;;;3.60;99.90;;;4.33;100.00;98905.31;4924241;29;20557;-77
2022/01/20 02:03:58;;;;;;;4.67;3.40;;;3.60;99.90;;;4.36;100.00;98902.47;4924502;29;20851;-77
2022/01/20 02:09:34;;;;;;;4.70;3.60;;;3.60;99.90;;;4.37;100.00;98909.25;4920582;29;20498;-77
2022/01/20 02:17:59;;;;;;;3.73;2.90;;;3.70;99.90;;;4.32;100.00;98890.72;4926007;29;20477;-77
2022/01/20 02:20:31;;;;;;;5.70;3.30;;;3.50;99.90;;;4.33;100.00;98882.00;4926509;29;21169;-77
2022/01/20 02:23:01;;;;;;;5.93;3.37;;;3.60;99.90;;;4.32;100.00;98888.13;4928421;29;20452;-77
2022/01/20 02:25:36;;;;;;;7.20;3.17;;;3.60;99.90;;;4.32;100.00;98885.53;4925812;29;21051;-77
2022/01/20 02:28:09;;;;;;;9.83;3.07;;;3.70;99.90;;;4.32;100.00;98895.91;4928149;29;20580;-77
2022/01/20 02:30:43;;;;;;;4.63;2.80;;;3.70;99.90;;;4.31;100.00;98893.41;4926870;29;20517;-77
2022/01/20 02:33:17;;;;;;;4.57;2.37;;;3.70;99.90;;;4.26;100.00;98888.66;4927544;29;20473;-77
2022/01/20 02:35:50;;;;;;;7.03;3.00;;;3.50;99.90;;;4.23;100.00;98893.25;4925253;29;21046;-77
2022/01/20 02:38:26;;;;;;;9.27;2.87;;;3.40;99.90;;;4.16;100.00;98898.13;4927329;29;20513;-77
2022/01/20 02:46:29;;;;;;;10.23;3.20;;;3.30;99.90;;;4.03;100.00;98884.50;4922964;29;20858;-76
2022/01/20 02:48:58;;;;;;;7.83;2.50;;;3.40;99.90;;;3.93;100.00;98893.97;4925549;29;20527;-77
2022/01/20 02:51:28;;;;;;;5.87;2.60;;;3.20;99.90;;;3.89;100.00;98900.31;4920816;29;20560;-77
2022/01/20 02:53:58;;;;;;;4.97;2.33;;;3.10;99.90;;;3.83;100.00;98895.66;4923085;29;20799;-76
2022/01/20 02:56:28;;;;;;;9.60;2.70;;;3.00;99.90;;;3.81;100.00;98902.72;4923603;29;21223;-77
2022/01/20 02:58:58;;;;;;;6.20;2.53;;;3.00;99.90;;;3.77;100.00;98896.97;4920345;29;20536;-77
2022/01/20 03:01:28;;;;;;;18.00;3.40;;;3.00;99.90;;;3.74;100.00;98894.66;4922849;29;20473;-77
2022/01/20 03:04:00;;;;;;;9.60;2.63;;;3.00;99.90;;;3.70;100.00;98898.41;4925353;29;20473;-77
2022/01/20 03:06:32;;;;;;;8.77;2.27;;;3.00;99.90;;;3.68;100.00;98889.94;4922793;29;20472;-76
2022/01/20 03:09:02;;;;;;;9.17;2.43;;;3.10;99.90;;;3.62;100.00;98894.78;4922556;29;20556;-77
2022/01/20 03:11:32;;;;;;;10.00;2.43;;;3.00;99.90;;;3.53;100.00;98898.94;4924844;29;20476;-77
2022/01/20 03:14:03;;;;;;;10.33;2.93;;;2.80;99.90;;;3.47;100.00;98896.84;4925760;29;20468;-76
2022/01/20 03:16:33;;;;;;;7.57;2.67;;;2.70;99.90;;;3.44;100.00;98897.91;4924382;29;20564;-77
2022/01/20 03:19:02;;;;;;;9.20;3.10;;;2.70;99.90;;;3.44;100.00;98902.25;4923125;29;20517;-76
2022/01/20 03:21:33;;;;;;;7.70;2.47;;;2.60;99.90;;;3.44;100.00;98903.06;4918318;29;20471;-77
2022/01/20 03:24:04;;;;;;;17.50;3.43;;;2.60;99.90;;;3.41;100.00;98903.31;4924215;29;20480;-77
2022/01/20 03:26:35;;;;;;;10.17;2.10;;;2.60;99.90;;;3.40;100.00;98903.44;4923272;29;20492;-77
2022/01/20 03:29:04;;;;;;;11.73;3.43;;;2.60;99.90;;;3.33;100.00;98910.03;4922418;29;20532;-77
2022/01/20 03:31:34;;;;;;;9.93;2.83;;;2.50;99.90;;;3.31;100.00;98909.31;4920875;29;20502;-76
2022/01/20 03:34:04;;;;;;;3.70;1.73;;;2.60;99.90;;;3.30;100.00;98912.84;4925508;29;20883;-76
2022/01/20 03:36:36;;;;;;;4.20;1.97;;;2.70;99.90;;;3.25;100.00;98909.81;4920207;29;20978;-76
2022/01/20 03:39:06;;;;;;;5.33;2.77;;;2.60;99.90;;;3.20;100.00;98905.00;4923530;29;20974;-77
2022/01/20 03:41:36;;;;;;;7.20;2.20;;;2.50;99.90;;;3.17;100.00;98914.75;4921712;29;20490;-77
2022/01/20 03:44:07;;;;;;;10.07;1.77;;;2.40;99.90;;;3.14;100.00;98908.06;4922371;29;20509;-76
2022/01/20 03:46:37;;;;;;;7.50;1.83;;;2.40;99.90;;;3.13;100.00;98908.16;4921322;29;20476;-76
2022/01/20 03:49:24;;;;;;;3.73;1.77;;;2.40;99.90;;;3.11;100.00;98913.47;4922818;29;20503;-77
2022/01/20 03:51:55;;;;;;;14.93;2.10;;;2.40;99.90;;;3.10;100.00;98914.41;4920922;29;20897;-77
2022/01/20 03:54:28;;;;;;;10.97;2.60;;;2.40;99.90;;;3.06;100.00;98918.16;4923365;29;20473;-77
2022/01/20 03:56:58;;;;;;;6.10;2.03;;;2.50;99.90;;;3.03;100.00;98910.63;4924245;29;20470;-77
2022/01/20 03:59:29;;;;;;;4.73;1.83;;;2.30;99.90;;;2.99;100.00;98906.66;4921916;29;22692;-77
2022/01/20 04:01:58;;;;;;;14.47;3.47;;;2.30;99.90;;;2.97;100.00;98921.44;4922476;29;20478;-77
2022/01/20 04:04:28;;;;;;;8.23;2.30;;;2.20;99.90;;;2.92;100.00;98911.47;4921581;29;20572;-77
2022/01/20 04:06:59;;;;;;;8.33;2.47;;;2.20;99.90;;;2.94;100.00;98914.78;4923763;29;20479;-77
2022/01/20 04:09:29;;;;;;;10.77;2.47;;;2.20;99.90;;;2.92;100.00;98915.81;4923034;29;20559;-77
2022/01/20 04:11:59;;;;;;;4.23;1.73;;;2.10;99.90;;;2.89;100.00;98916.03;4923357;29;21116;-77
2022/01/20 04:14:33;;;;;;;3.83;2.20;;;2.00;99.90;;;2.88;100.00;98909.25;4921829;29;20550;-77
2022/01/20 04:17:04;;;;;;;9.17;2.13;;;2.10;99.90;;;2.85;100.00;98901.72;4920803;29;21046;-77
2022/01/20 04:19:35;;;;;;;10.27;3.07;;;2.10;99.90;;;2.80;100.00;98904.66;4919152;29;20532;-77
2022/01/20 04:22:08;;;;;;;4.77;1.87;;;2.00;99.90;;;2.79;100.00;98920.28;4922693;29;20463;-77
2022/01/20 04:24:37;;;;;;;5.20;2.07;;;2.10;99.90;;;2.76;100.00;98918.75;4918907;29;20467;-77
2022/01/20 04:27:08;;;;;;;3.80;1.90;;;2.00;99.90;;;2.73;100.00;98918.97;4908681;29;20463;-77
2022/01/20 04:29:38;;;;;;;5.60;2.07;;;1.90;99.90;;;2.68;100.00;98912.50;4905061;29;21155;-77
2022/01/20 04:32:09;;;;;;;13.20;2.67;;;1.90;99.90;;;2.70;100.00;98902.91;4923094;29;20959;-77
2022/01/20 04:34:39;;;;;;;10.60;3.33;;;1.90;99.90;;;2.67;100.00;98905.72;4922257;29;20475;-77
2022/01/20 04:37:10;;;;;;;9.97;2.57;;;1.90;99.90;;;2.65;100.00;98900.66;4921542;29;20998;-77
2022/01/20 04:39:45;;;;;;;8.70;2.80;;;1.90;99.90;;;2.65;100.00;98892.09;4921959;29;21265;-77
2022/01/20 04:42:16;;;;;;;10.67;2.60;;;2.00;99.90;;;2.63;100.00;98899.97;4922571;29;20665;-77
2022/01/20 04:44:51;;;;;;;6.27;2.37;;;1.90;99.90;;;2.62;100.00;98892.31;4921737;29;20497;-77
2022/01/20 04:47:33;;;;;;;7.40;2.57;;;2.00;99.90;;;2.56;100.00;98892.78;4921854;29;20525;-77
2022/01/20 04:58:24;;;;;;;7.90;2.57;;;1.70;99.90;;;2.46;100.00;98884.94;4924356;29;20492;-76
2022/01/20 05:00:55;;;;;;;6.33;2.20;;;1.70;99.90;;;2.43;100.00;98898.88;4925096;29;20509;-76
2022/01/20 05:03:25;;;;;;;3.70;2.17;;;1.60;99.90;;;2.41;100.00;98890.44;4921989;29;20838;-76
2022/01/20 05:05:55;;;;;;;8.27;2.53;;;1.60;99.90;;;2.42;100.00;98896.41;4922645;29;20982;-76
2022/01/20 05:08:29;;;;;;;4.77;2.50;;;1.70;99.90;;;2.39;100.00;98901.81;4921249;29;20537;-76
2022/01/20 05:11:01;;;;;;;7.43;2.43;;;1.70;99.90;;;2.37;100.00;98904.50;4919858;29;20508;-77
2022/01/20 05:13:37;;;;;;;10.63;5.33;;;1.60;99.90;;;2.36;100.00;98889.16;4917455;29;20560;-76
2022/01/20 05:16:06;;;;;;;3.20;1.97;;;1.60;99.90;;;2.34;100.00;98881.50;4922344;29;20557;-75
2022/01/20 05:18:38;;;;;;;9.93;2.53;;;1.80;99.90;;;2.34;100.00;98881.50;4924852;29;20468;-76
2022/01/20 05:21:07;;;;;;;10.77;2.20;;;1.70;99.90;;;2.32;100.00;98880.81;4924736;29;21296;-77
2022/01/20 05:23:39;;;;;;;11.77;4.47;;;1.60;99.90;;;2.30;100.00;98890.41;4924947;29;20557;-76
2022/01/20 05:26:09;;;;;;;6.27;2.47;;;1.60;99.90;;;2.30;100.00;98894.75;4923208;29;20463;-76
2022/01/20 05:28:39;;;;;;;5.67;2.50;;;1.60;99.90;;;2.32;100.00;98906.63;4923996;29;20994;-75
2022/01/20 05:31:08;;;;;;;14.50;2.80;;;1.50;99.90;;;2.33;100.00;98913.41;4924164;29;20485;-75
2022/01/20 05:33:38;;;;;;;5.03;2.33;;;1.60;99.90;;;2.36;100.00;98910.59;4921789;29;21019;-75
2022/01/20 05:36:07;;;;;;;26.17;6.83;;;1.60;99.90;;;2.36;100.00;98910.59;4922384;29;20540;-75
2022/01/20 05:38:37;;;;;;;7.70;2.80;;;1.70;99.90;;;2.42;100.00;98927.38;4923405;29;20466;-75
2022/01/20 05:41:07;;;;;;;14.20;2.50;;;1.80;99.90;;;2.48;100.00;98922.59;4923935;29;20504;-75
2022/01/20 05:43:36;;;;;;;26.33;4.77;;;1.90;99.90;;;2.48;100.00;98911.44;4923595;29;20870;-76
2022/01/20 05:46:08;;;;;;;15.13;5.17;;;1.80;99.90;;;2.49;100.00;98918.25;4926184;29;20996;-76
2022/01/20 05:48:45;;;;;;;21.73;5.87;;;1.90;99.90;;;2.48;100.00;98912.25;4926684;29;20897;-76
2022/01/20 05:51:16;;;;;;;22.83;7.80;;;1.80;99.90;;;2.48;100.00;98922.59;4927183;29;20498;-76
2022/01/20 05:53:47;;;;;;;31.30;7.07;;;1.70;99.90;;;2.50;100.00;98920.69;4926576;29;20451;-76
2022/01/20 05:56:16;;;;;;;25.13;7.53;;;1.70;99.90;;;2.50;100.00;98925.84;4927257;29;20847;-76
2022/01/20 05:58:47;;;;;;;19.67;6.60;;;1.70;99.90;;;2.55;100.00;98933.28;4926277;29;20489;-76
2022/01/20 06:01:17;;;;;;;20.53;6.20;;;1.70;99.90;;;2.56;100.00;98923.78;4926019;29;20507;-76
2022/01/20 06:03:46;;;;;;;17.83;6.10;;;1.80;99.90;;;2.57;100.00;98930.59;4926686;29;20458;-76
2022/01/20 06:06:16;;;;;;;29.67;6.00;;;1.90;99.90;;;2.60;100.00;98935.50;4925455;29;20515;-76
2022/01/20 06:08:47;;;;;;;19.03;6.60;;;1.90;99.90;;;2.61;100.00;98937.13;4927158;29;20446;-76
2022/01/20 06:11:15;;;;;;;14.80;4.97;;;1.90;99.90;;;2.59;100.00;98929.53;4926421;29;20540;-76
2022/01/20 06:13:44;;;;;;;18.43;5.23;;;1.80;99.90;;;2.63;100.00;98924.97;4927141;29;20484;-76
2022/01/20 06:16:13;;;;;;;14.50;4.93;;;1.90;99.90;;;2.64;100.00;98914.50;4925468;29;20496;-76
2022/01/20 06:18:43;;;;;;;22.80;5.63;;;2.00;99.90;;;2.65;100.00;98912.75;4926356;29;20534;-76
2022/01/20 06:21:13;;;;;;;15.27;4.90;;;2.00;99.90;;;2.66;100.00;98922.97;4925061;29;20451;-76
2022/01/20 06:23:42;;;;;;;14.23;4.47;;;2.00;99.90;;;2.67;100.00;98911.72;4926280;29;20508;-76
2022/01/20 06:26:13;;;;;;;15.77;5.47;;;2.00;99.90;;;2.64;100.00;98917.06;4924468;29;20455;-76
2022/01/20 06:28:44;;;;;;;10.57;3.30;;;1.90;99.90;;;2.69;100.00;98919.31;4923855;29;21290;-76
2022/01/20 06:31:16;;;;;;;8.73;3.73;;;1.90;99.90;;;2.68;100.00;98922.84;4924922;29;20712;-76
2022/01/20 06:33:47;;;;;;;15.33;3.77;;;1.90;99.90;;;2.72;100.00;98919.91;4924154;29;20450;-77
2022/01/20 06:36:17;;;;;;;9.63;2.80;;;2.00;99.90;;;2.79;100.00;98920.28;4924855;29;20953;-76
2022/01/20 06:38:46;;;;;;;12.43;2.90;;;2.00;99.90;;;2.83;100.00;98921.69;4925470;29;21077;-75
2022/01/20 06:41:18;;;;;;;8.67;3.00;;;2.20;99.90;;;2.88;100.00;98910.06;4924159;29;20464;-76
2022/01/20 06:43:49;;;;;;;11.97;3.63;;;2.20;99.90;;;2.90;100.00;98921.09;4924419;29;21098;-76
2022/01/20 06:46:18;;;;;;;12.07;3.57;;;2.20;99.90;;;2.93;100.00;98922.63;4924755;29;20557;-76
2022/01/20 06:48:47;;;;;;;9.40;2.83;;;2.20;99.90;;;2.96;100.00;98930.13;4926544;29;20443;-76
2022/01/20 06:51:19;;;;;;;4.73;2.17;;;2.30;99.90;;;2.98;100.00;98930.84;4928702;29;20502;-76
2022/01/20 06:53:48;;;;;;;7.63;2.00;;;2.30;99.90;;;3.02;100.00;98932.25;4929251;29;20476;-76
2022/01/20 06:56:19;;;;;;;11.43;2.43;;;2.30;99.90;;;3.07;100.00;98944.81;4927924;29;20452;-76
2022/01/20 06:59:09;;;;;;;11.50;2.30;;;2.30;99.90;;;3.10;100.00;98950.56;4926478;29;20952;-76
2022/01/20 07:01:39;;;;;;;6.90;2.00;;;2.50;99.90;;;3.11;100.00;98952.22;4929351;29;20456;-77
2022/01/20 07:04:10;;;;;;;8.87;2.03;;;2.50;99.90;;;3.14;100.00;98956.31;4930757;29;20498;-76
2022/01/20 07:06:40;;;;;;;7.97;2.57;;;2.50;99.90;;;3.16;100.00;98959.63;4928501;29;20494;-76
2022/01/20 07:09:10;;;;;;;8.23;2.53;;;2.50;99.90;;;3.22;100.00;98962.56;4928742;29;20460;-76
2022/01/20 07:11:42;;;;;;;9.97;1.60;;;2.70;99.90;;;3.24;100.00;98972.75;4929877;29;20544;-76
2022/01/20 07:14:12;;;;;;;9.50;1.90;;;2.60;99.90;;;3.26;100.00;98974.31;4928851;29;20553;-76
2022/01/20 07:16:41;;;;;;;6.37;2.03;;;2.60;99.90;;;3.28;100.00;98974.16;4930467;29;20443;-76
2022/01/20 07:19:13;;;;;;;11.37;2.47;;;2.60;99.90;;;3.28;100.00;98982.75;4928262;29;20456;-76
2022/01/20 07:21:43;;;;;;;3.60;2.00;;;2.50;99.90;;;3.27;100.00;98978.50;4929594;29;21015;-76
2022/01/20 07:24:13;;;;;;;7.63;2.20;;;2.60;99.90;;;3.29;100.00;98997.31;4929142;29;20458;-76
2022/01/20 07:26:45;;;;;;;8.30;2.10;;;2.60;99.90;;;3.29;100.00;99004.25;4929093;29;20457;-76
2022/01/20 07:29:15;;;;;;;7.37;1.97;;;2.70;99.90;;;3.34;100.00;99004.69;4929249;29;20540;-76
2022/01/20 07:31:45;;;;;;;14.70;3.17;;;2.80;99.90;;;3.39;100.00;99008.59;4928612;29;20503;-75
2022/01/20 07:34:15;;;;;;;6.47;1.83;;;2.90;99.90;;;3.39;100.00;99007.78;4928881;29;20484;-76
2022/01/20 07:36:45;;;;;;;3.40;1.53;;;2.80;99.90;;;3.44;100.00;99011.63;4929676;29;20465;-76
2022/01/20 07:39:15;;;;;;;3.90;2.00;;;2.80;99.90;;;3.44;100.00;99014.22;4929105;29;20455;-76
2022/01/20 07:41:46;;;;;;;6.93;2.13;;;2.80;99.90;;;3.45;100.00;99013.28;4929270;29;20452;-76
2022/01/20 07:44:17;;;;;;;6.40;1.60;;;2.90;99.90;;;3.43;100.00;99007.44;4928425;29;20494;-76
2022/01/20 07:46:46;;;;;;;6.10;1.70;;;2.80;99.90;;;3.44;100.00;99006.47;4928662;29;20537;-76
2022/01/20 07:49:17;;;;;;;2.03;1.40;;;2.90;99.90;;;3.44;100.00;99016.81;4928214;29;20874;-76
2022/01/20 07:51:47;;;;;;;3.67;2.00;;;2.80;99.90;;;3.45;100.00;99013.28;4927330;29;20523;-76
2022/01/20 07:54:17;;;;;;;3.10;1.80;;;2.80;99.90;;;3.44;100.00;99008.22;4928537;29;20463;-76
2022/01/20 07:56:51;;;;;;;3.10;1.60;;;2.80;99.90;;;3.48;100.00;99013.03;4928846;29;20453;-76
2022/01/20 07:59:24;;;;;;;7.50;2.07;;;2.80;99.90;;;3.49;100.00;99009.53;4928714;29;21271;-76
2022/01/20 08:01:54;;;;;;;2.33;1.50;;;2.90;99.90;;;3.54;100.00;99006.56;4927959;29;20513;-76
2022/01/20 08:04:23;;;;;;;4.97;1.60;;;2.90;99.90;;;3.54;100.00;98997.06;4928913;29;20527;-76
2022/01/20 08:06:52;;;;;;;4.43;1.60;;;3.00;99.90;;;3.54;100.00;98991.88;4928689;29;21016;-76
2022/01/20 08:09:23;;;;;;;3.70;1.63;;;2.90;99.90;;;3.53;100.00;98984.25;4927979;29;20456;-76
2022/01/20 08:12:16;;;;;;;8.60;1.60;;;2.90;99.90;;;3.54;100.00;99006.56;4927525;29;20504;-76
2022/01/20 08:14:45;;;;;;;7.30;1.80;;;2.90;99.90;;;3.55;100.00;99008.22;4927990;29;20461;-76
2022/01/20 08:17:15;;;;;;;4.23;1.60;;;3.00;99.90;;;3.55;100.00;99016.81;4927063;29;20451;-76
2022/01/20 08:19:45;;;;;;;8.87;2.10;;;2.90;99.90;;;3.61;100.00;99025.84;4926488;29;20538;-76
2022/01/20 08:22:14;;;;;;;7.93;2.20;;;3.00;99.90;;;3.63;100.00;99017.97;4925090;29;20576;-76
2022/01/20 08:25:02;;;;;;;4.00;1.80;;;3.00;99.90;;;3.64;100.00;99017.88;4926394;29;20464;-76
2022/01/20 08:27:33;;;;;;;11.20;1.97;;;3.00;99.90;;;3.69;100.00;99020.91;4925432;29;20485;-76
2022/01/20 08:30:04;;;;;;;1.87;1.53;;;3.10;99.90;;;3.76;100.00;99022.06;4926028;29;20516;-76
2022/01/20 08:32:33;;;;;;;4.60;1.90;;;3.20;99.90;;;3.79;100.00;99026.16;4925910;29;20501;-76
2022/01/20 08:35:06;;;;;;;4.87;1.80;;;3.20;99.90;;;3.83;100.00;99043.09;4925813;29;20519;-76
2022/01/20 08:37:36;;;;;;;2.90;1.90;;;3.20;99.90;;;3.87;100.00;99040.16;4926827;29;20541;-76
2022/01/20 08:40:09;;;;;;;7.27;1.90;;;3.30;99.90;;;3.89;100.00;99038.25;4925194;29;20460;-76
2022/01/20 08:42:40;;;;;;;6.47;2.20;;;3.40;99.90;;;3.91;100.00;99045.91;4927622;29;20461;-76
2022/01/20 08:45:14;;;;;;;9.47;2.90;;;3.40;99.90;;;3.91;100.00;99035.56;4926336;29;20501;-76
2022/01/20 08:47:45;;;;;;;5.17;2.00;;;3.30;99.90;;;3.94;100.00;99041.31;4925118;29;20987;-76
2022/01/20 08:50:15;;;;;;;2.53;1.57;;;3.40;99.90;;;3.90;100.00;99033.91;4927401;29;20485;-76
2022/01/20 08:52:52;;;;;;;5.87;2.23;;;3.40;99.90;;;3.91;100.00;99026.03;4925068;29;20509;-76
2022/01/20 08:55:22;;;;;;;3.40;1.50;;;3.30;99.90;;;3.95;100.00;99032.63;4925437;29;20455;-76
2022/01/20 08:57:53;;;;;;;4.80;2.50;;;3.40;99.90;;;3.94;100.00;99030.16;4925603;29;20538;-76
2022/01/20 09:00:25;;;;;;;10.23;2.27;;;3.40;99.90;;;3.97;100.00;99035.91;4927769;29;20477;-76
2022/01/20 09:02:56;;;;;;;6.33;2.33;;;3.40;99.90;;;3.99;100.00;99028.03;4927604;29;20793;-76
2022/01/20 09:05:25;;;;;;;4.70;1.80;;;3.40;99.90;;;3.98;100.00;99037.56;4927292;29;20462;-76
2022/01/20 09:07:55;;;;;;;5.50;1.73;;;3.40;99.90;;;4.05;100.00;99037.88;4927695;29;20466;-76
2022/01/20 09:10:28;;;;;;;4.20;1.30;;;3.50;99.90;;;4.10;100.00;99035.75;4925600;29;20461;-76
2022/01/20 09:15:47;;;;;;;6.37;2.00;;;3.60;99.90;;;4.20;100.00;99049.59;4927757;29;21004;-76
2022/01/20 09:18:18;;;;;;;4.97;1.63;;;3.50;99.90;;;4.24;100.00;99051.00;4926980;29;21015;-76
2022/01/20 09:20:50;;;;;;;1.90;1.23;;;3.70;99.90;;;4.25;100.00;99055.25;4926966;29;20456;-76
2022/01/20 09:23:20;;;;;;;2.50;1.20;;;3.70;99.90;;;4.29;100.00;99048.88;4926950;29;20458;-76
2022/01/20 09:25:50;;;;;;;4.73;1.93;;;3.70;99.90;;;4.29;100.00;99056.66;4927007;29;20501;-76
2022/01/20 09:28:21;;;;;;;2.97;1.80;;;3.70;99.90;;;4.34;100.00;99051.91;4926618;29;20549;-76
2022/01/20 09:30:56;;;;;;;20.13;2.13;;;3.80;99.90;;;4.36;100.00;99047.44;4927447;29;20488;-76
2022/01/20 09:33:28;;;;;;;5.27;1.90;;;3.90;99.90;;;4.34;100.00;99036.38;4927595;29;20519;-76
2022/01/20 09:36:00;;;;;;;3.13;1.30;;;3.90;99.90;;;4.37;100.00;99043.09;4926036;29;20458;-76
2022/01/20 09:38:30;;;;;;;3.00;1.53;;;3.90;99.90;;;4.42;100.00;99056.47;4927683;29;20450;-76
2022/01/20 09:41:01;;;;;;;3.33;1.67;;;3.90;99.90;;;4.37;100.00;99064.59;4926321;29;20451;-76
2022/01/20 09:43:32;;;;;;;4.27;1.83;;;3.80;99.90;;;4.39;100.00;99077.44;4926590;29;20502;-76
2022/01/20 09:46:04;;;;;;;2.60;1.57;;;3.80;99.90;;;4.37;100.00;99095.66;4927342;29;20457;-76
2022/01/20 09:48:33;;;;;;;2.73;1.33;;;3.70;99.90;;;4.25;100.00;99112.19;4927368;29;20454;-76
2022/01/20 09:51:03;;;;;;;4.83;2.60;;;3.60;99.90;;;4.22;100.00;99117.59;4926842;29;20500;-76
2022/01/20 09:53:33;;;;;;;4.47;2.10;;;3.50;99.90;;;4.15;100.00;99116.44;4927415;29;20501;-76
2022/01/20 09:56:02;;;;;;;6.23;1.40;;;3.60;99.90;;;4.11;100.00;99117.63;4928983;29;20828;-76
2022/01/20 09:58:40;;;;;;;5.53;1.80;;;3.50;99.90;;;4.13;100.00;99122.69;4925808;29;20485;-76
2022/01/20 10:01:10;;;;;;;5.00;2.07;;;3.50;99.90;;;4.15;100.00;99131.16;4925974;29;20485;-76
2022/01/20 10:03:40;;;;;;;2.13;1.50;;;3.60;99.90;;;4.11;100.00;99140.09;4926457;29;20461;-76
2022/01/20 10:06:09;;;;;;;1.17;1.00;;;3.60;99.90;;;4.13;100.00;99136.44;4927245;29;20466;-76
2022/01/20 10:08:40;;;;;;;1.70;1.20;;;3.60;99.90;;;4.16;100.00;99146.56;4924951;29;20449;-76
2022/01/20 10:11:11;;;;;;;1.83;1.30;;;3.60;99.90;;;4.17;100.00;99143.00;4927605;29;20439;-76
2022/01/20 10:13:42;;;;;;;6.30;1.63;;;3.50;99.90;;;4.17;100.00;99139.59;4926880;29;20546;-76
2022/01/20 10:16:16;;;;;;;2.43;1.30;;;3.60;99.90;;;4.13;100.00;99164.91;4925818;29;20458;-76
2022/01/20 10:18:50;;;;;;;5.63;1.33;;;3.60;99.90;;;4.17;100.00;99168.06;4925419;29;20450;-76
2022/01/20 10:21:28;;;;;;;6.17;1.70;;;3.60;99.90;;;4.17;100.00;99171.50;4925258;28;20453;-76
2022/01/20 10:24:07;;;;;;;1.93;1.30;;;3.50;99.90;;;4.14;100.00;99161.38;4928617;29;20785;-76
2022/01/20 10:26:37;;;;;;;2.17;1.20;;;3.50;99.90;;;4.08;100.00;99161.84;4928465;29;20449;-76
2022/01/20 10:29:10;;;;;;;3.83;1.50;;;3.50;99.90;;;3.98;100.00;99171.28;4929090;29;20489;-76
2022/01/20 10:31:43;;;;;;;1.77;1.03;;;3.40;99.90;;;4.07;100.00;99173.13;4928253;29;20918;-76
2022/01/20 10:34:30;;;;;;;3.53;1.33;;;3.50;99.90;;;4.10;100.00;99167.72;4927008;29;20581;-76
2022/01/20 10:37:03;;;;;;;2.10;1.07;;;3.50;99.90;;;4.17;100.00;99155.97;4929439;29;20455;-76
2022/01/20 10:39:37;;;;;;;3.63;1.30;;;3.50;99.90;;;4.19;100.00;99159.28;4927356;29;20462;-76
2022/01/20 10:42:10;;;;;;;1.67;1.20;;;3.60;99.90;;;4.21;100.00;99152.19;4930803;29;20472;-76
2022/01/20 10:44:47;;;;;;;2.70;1.43;;;3.60;99.90;;;4.26;100.00;99160.44;4929327;29;20486;-76
2022/01/20 10:47:29;;;;;;;4.10;1.67;;;3.60;99.90;;;4.33;100.00;99161.59;4930268;29;20473;-76
2022/01/20 10:50:12;;;;;;;6.03;1.30;;;3.70;99.90;;;4.37;100.00;99160.41;4927981;29;20454;-76
2022/01/20 10:52:44;;;;;;;6.70;1.67;;;3.60;99.90;;;4.43;100.00;99167.72;4927483;29;21006;-77
2022/01/20 10:55:24;;;;;;;6.60;2.03;;;3.70;99.90;;;4.37;100.00;99165.56;4928043;29;20475;-76
2022/01/20 10:58:15;;;;;;;5.07;1.30;;;3.60;99.90;;;4.36;100.00;99165.72;4927916;29;20483;-76
2022/01/20 11:00:49;;;;;;;2.50;1.60;;;3.70;99.90;;;4.19;100.00;99167.03;4929269;29;20788;-76
2022/01/20 11:03:21;;;;;;;8.27;1.60;;;3.50;99.90;;;4.21;100.00;99157.38;4929713;29;20450;-76
2022/01/20 11:05:52;;;;;;;4.90;1.30;;;3.50;99.90;;;4.21;100.00;99162.53;4928341;29;20552;-76
2022/01/20 11:08:22;;;;;;;3.83;1.87;;;3.50;99.90;;;4.28;100.00;99153.38;4929517;29;21315;-76
2022/01/20 11:10:54;;;;;;;11.10;1.60;;;3.60;99.90;;;4.30;100.00;99148.91;4930454;29;20527;-76
2022/01/20 11:13:25;;;;;;;2.80;1.27;;;3.70;99.90;;;4.23;100.00;99150.31;4928115;29;20498;-76
2022/01/20 11:15:57;;;;;;;4.33;1.43;;;3.50;99.90;;;4.12;100.00;99139.97;4928396;29;20455;-76
2022/01/20 11:18:28;;;;;;;6.83;1.60;;;3.50;99.90;;;4.19;100.00;99138.56;4929704;29;20466;-76
2022/01/20 11:20:59;;;;;;;9.90;2.03;;;3.60;99.90;;;4.24;100.00;99143.34;4929269;29;20443;-76
2022/01/20 11:23:42;;;;;;;3.70;1.30;;;3.60;99.90;;;4.27;100.00;99136.19;4930856;29;20457;-76
2022/01/20 11:26:11;;;;;;;10.23;1.57;;;3.60;99.90;;;4.33;100.00;99135.72;4929592;29;20451;-76
2022/01/20 11:28:40;;;;;;;6.40;1.37;;;3.70;99.90;;;4.38;100.00;99154.28;4929504;29;20556;-76